createdAt,value
2023-02-11T00:01:36.056Z,1.33
2023-02-11T00:04:06.295Z,1.37
2023-02-11T00:06:37.578Z,1.37
2023-02-11T00:09:06.866Z,1.40
2023-02-11T00:11:35.621Z,1.42
2023-02-11T00:14:08.075Z,1.46
2023-02-11T00:16:36.317Z,1.47
2023-02-11T00:19:06.493Z,1.47
2023-02-11T00:21:36.479Z,1.46
2023-02-11T00:24:07.356Z,1.51
2023-02-11T00:26:36.728Z,1.55
2023-02-11T00:29:05.495Z,1.54
2023-02-11T00:31:35.615Z,1.57
2023-02-11T00:34:07.088Z,1.65
2023-02-11T00:36:36.536Z,1.71
2023-02-11T00:39:05.305Z,1.69
2023-02-11T00:41:33.350Z,1.69
2023-02-11T00:44:02.370Z,1.73
2023-02-11T00:46:30.374Z,1.75
2023-02-11T00:48:58.535Z,1.79
2023-02-11T00:51:26.916Z,1.81
2023-02-11T00:53:56.236Z,1.80
2023-02-11T00:56:27.011Z,1.83
2023-02-11T00:58:57.455Z,1.91
2023-02-11T01:01:26.249Z,1.97
2023-02-11T01:03:54.338Z,2.01
2023-02-11T01:06:26.400Z,2.07
2023-02-11T01:08:55.868Z,2.12
2023-02-11T01:11:24.453Z,2.12
2023-02-11T01:13:52.813Z,2.12
2023-02-11T01:16:22.178Z,2.14
2023-02-11T01:18:50.577Z,2.13
2023-02-11T01:21:20.877Z,2.13
2023-02-11T01:23:49.024Z,2.15
2023-02-11T01:26:18.640Z,2.19
2023-02-11T01:28:46.768Z,2.23
2023-02-11T01:31:15.163Z,2.28
2023-02-11T01:33:43.253Z,2.30
2023-02-11T01:36:15.157Z,2.29
2023-02-11T01:38:44.549Z,2.33
2023-02-11T01:41:15.898Z,2.36
2023-02-11T01:43:47.927Z,2.39
2023-02-11T01:46:24.856Z,2.42
2023-02-11T01:48:56.517Z,2.42
2023-02-11T01:51:28.672Z,2.42
2023-02-11T01:54:15.134Z,2.43
2023-02-11T01:57:05.439Z,2.45
2023-02-11T01:59:41.883Z,2.48
2023-02-11T02:02:13.931Z,2.47
2023-02-11T02:04:48.317Z,2.41
2023-02-11T02:07:24.240Z,2.40
2023-02-11T02:10:00.000Z,2.44
2023-02-11T02:12:30.481Z,2.44
2023-02-11T02:18:02.052Z,2.42
2023-02-11T02:21:07.995Z,2.47
2023-02-11T02:24:33.437Z,2.49
2023-02-11T02:27:26.825Z,2.44
2023-02-11T02:30:12.293Z,2.40
2023-02-11T02:33:23.897Z,2.44
2023-02-11T02:36:05.334Z,2.50
2023-02-11T02:38:39.315Z,2.57
2023-02-11T02:41:11.098Z,2.59
2023-02-11T02:43:42.752Z,2.61
2023-02-11T02:46:16.135Z,2.66
2023-02-11T02:48:46.163Z,2.70
2023-02-11T02:51:36.412Z,2.73
2023-02-11T02:54:29.060Z,2.74
2023-02-11T02:57:05.725Z,2.75
2023-02-11T02:59:45.295Z,2.75
2023-02-11T03:02:22.438Z,2.75
2023-02-11T03:04:58.628Z,2.75
2023-02-11T03:07:38.463Z,2.74
2023-02-11T03:10:10.536Z,2.76
2023-02-11T03:12:39.257Z,2.76
2023-02-11T03:15:08.648Z,2.76
2023-02-11T03:17:41.937Z,2.79
2023-02-11T03:20:14.173Z,2.76
2023-02-11T03:22:49.001Z,2.72
2023-02-11T03:25:17.882Z,2.76
2023-02-11T03:27:53.845Z,2.76
2023-02-11T03:30:27.406Z,2.62
2023-02-11T03:33:02.223Z,2.62
2023-02-11T03:35:36.797Z,2.59
2023-02-11T03:38:10.349Z,2.48
2023-02-11T03:40:42.433Z,2.39
2023-02-11T03:43:17.157Z,2.33
2023-02-11T03:45:47.380Z,2.31
2023-02-11T03:48:20.542Z,2.30
2023-02-11T03:50:50.128Z,2.27
2023-02-11T03:53:22.215Z,2.26
2023-02-11T03:55:53.258Z,2.19
2023-02-11T03:58:21.292Z,2.21
2023-02-11T04:00:50.093Z,2.25
2023-02-11T04:03:20.742Z,2.32
2023-02-11T04:05:49.359Z,2.36
2023-02-11T04:08:21.104Z,2.39
2023-02-11T04:10:49.039Z,2.43
2023-02-11T04:13:18.752Z,2.49
2023-02-11T04:15:49.002Z,2.51
2023-02-11T04:18:17.368Z,2.53
2023-02-11T04:20:45.470Z,2.55
2023-02-11T04:23:13.455Z,2.62
2023-02-11T04:25:43.532Z,2.63
2023-02-11T04:28:11.547Z,2.68
2023-02-11T04:30:39.871Z,2.70
2023-02-11T04:33:08.009Z,2.72
2023-02-11T04:35:36.230Z,2.73
2023-02-11T04:38:04.174Z,2.68
2023-02-11T04:40:32.073Z,2.73
2023-02-11T04:43:01.472Z,2.75
2023-02-11T04:45:29.412Z,2.75
2023-02-11T04:47:57.502Z,2.75
2023-02-11T04:50:26.113Z,2.77
2023-02-11T04:52:54.010Z,2.76
2023-02-11T04:55:21.943Z,2.75
2023-02-11T04:57:50.034Z,2.77
2023-02-11T05:00:20.346Z,2.76
2023-02-11T05:02:50.679Z,2.79
2023-02-11T05:05:18.830Z,2.81
2023-02-11T05:07:46.898Z,2.85
2023-02-11T05:10:15.173Z,2.83
2023-02-11T05:12:43.102Z,2.83
2023-02-11T05:15:14.012Z,2.85
2023-02-11T05:17:43.429Z,2.89
2023-02-11T05:20:12.449Z,2.90
2023-02-11T05:22:40.379Z,2.92
2023-02-11T05:25:08.559Z,2.92
2023-02-11T05:27:36.861Z,2.90
2023-02-11T05:30:06.315Z,2.91
2023-02-11T05:32:35.006Z,2.93
2023-02-11T05:35:04.249Z,2.92
2023-02-11T05:37:32.512Z,2.95
2023-02-11T05:40:00.416Z,2.97
2023-02-11T05:42:28.697Z,2.97
2023-02-11T05:44:56.787Z,3.00
2023-02-11T05:47:25.052Z,2.98
2023-02-11T05:49:55.642Z,2.94
2023-02-11T05:52:25.803Z,2.87
2023-02-11T05:54:53.948Z,2.89
2023-02-11T05:57:22.225Z,2.93
2023-02-11T05:59:50.512Z,2.94
2023-02-11T06:02:18.613Z,2.94
2023-02-11T06:04:46.815Z,2.93
2023-02-11T06:07:15.020Z,2.95
2023-02-11T06:09:44.548Z,2.96
2023-02-11T06:12:12.679Z,2.96
2023-02-11T06:14:43.235Z,2.96
2023-02-11T06:17:12.898Z,2.94
2023-02-11T06:19:42.684Z,2.92
2023-02-11T06:22:10.897Z,2.92
2023-02-11T06:24:59.986Z,2.85
2023-02-11T06:27:28.528Z,2.80
2023-02-11T06:29:56.487Z,2.77
2023-02-11T06:32:42.836Z,2.76
2023-02-11T06:35:12.620Z,2.72
2023-02-11T06:37:41.071Z,2.66
2023-02-11T06:40:09.741Z,2.60
2023-02-11T06:42:39.800Z,2.55
2023-02-11T06:45:09.494Z,2.55
2023-02-11T06:47:40.552Z,2.56
2023-02-11T06:50:11.026Z,2.53
2023-02-11T06:52:39.550Z,2.50
2023-02-11T06:55:08.107Z,2.53
2023-02-11T06:57:40.183Z,2.49
2023-02-11T07:00:29.111Z,2.49
2023-02-11T07:02:57.476Z,2.47
2023-02-11T07:05:25.659Z,2.54
2023-02-11T07:07:53.753Z,2.56
2023-02-11T07:10:21.786Z,2.62
2023-02-11T07:12:54.000Z,2.67
2023-02-11T07:15:24.582Z,2.72
2023-02-11T07:17:52.501Z,2.74
2023-02-11T07:20:23.133Z,2.80
2023-02-11T07:22:53.726Z,2.81
2023-02-11T07:25:27.997Z,2.88
2023-02-11T07:27:57.933Z,2.94
2023-02-11T07:36:13.298Z,2.94
2023-02-11T07:38:41.685Z,2.98
2023-02-11T07:41:12.820Z,2.96
2023-02-11T07:43:43.900Z,2.94
2023-02-11T07:46:17.720Z,2.97
2023-02-11T07:48:48.694Z,3.00
2023-02-11T07:51:18.863Z,3.08
2023-02-11T07:53:47.842Z,3.17
2023-02-11T07:56:20.680Z,3.23
2023-02-11T07:59:18.081Z,3.32
2023-02-11T08:01:51.442Z,3.38
2023-02-11T08:04:19.503Z,3.40
2023-02-11T08:07:44.046Z,3.51
2023-02-11T08:10:38.008Z,3.66
2023-02-11T08:13:11.538Z,3.78
2023-02-11T08:15:41.619Z,3.92
2023-02-11T08:18:36.254Z,4.03
2023-02-11T08:21:08.832Z,4.09
2023-02-11T08:23:40.453Z,4.19
2023-02-11T08:27:01.836Z,4.33
2023-02-11T08:33:19.785Z,4.56
2023-02-11T08:35:47.870Z,4.66
2023-02-11T08:38:16.075Z,4.75
2023-02-11T08:40:44.088Z,4.82
2023-02-11T08:43:12.086Z,4.93
2023-02-11T08:45:40.192Z,5.05
2023-02-11T08:48:08.260Z,5.15
2023-02-11T08:50:39.820Z,5.23
2023-02-11T08:53:07.996Z,5.35
2023-02-11T08:55:36.360Z,5.46
2023-02-11T08:58:24.016Z,5.59
2023-02-11T09:01:14.342Z,5.69
2023-02-11T09:03:42.887Z,5.78
2023-02-11T09:06:17.431Z,5.84
2023-02-11T09:08:49.081Z,5.94
2023-02-11T09:11:19.288Z,6.01
2023-02-11T09:13:48.565Z,6.06
2023-02-11T09:16:22.508Z,6.10
2023-02-11T09:18:51.699Z,6.20
2023-02-11T09:21:23.673Z,6.25
2023-02-11T09:23:51.738Z,6.31
2023-02-11T09:26:21.612Z,6.45
2023-02-11T09:28:51.266Z,6.60
2023-02-11T09:31:23.658Z,6.55
2023-02-11T09:33:54.050Z,6.61
2023-02-11T09:36:26.171Z,6.68
2023-02-11T09:38:55.713Z,6.74
2023-02-11T09:41:56.799Z,6.78
2023-02-11T09:44:27.870Z,6.85
2023-02-11T09:46:58.658Z,6.80
2023-02-11T09:49:35.904Z,6.78
2023-02-11T09:52:11.407Z,6.75
2023-02-11T09:54:51.644Z,6.73
2023-02-11T09:57:28.642Z,6.68
2023-02-11T09:59:58.244Z,6.61
2023-02-11T10:02:31.293Z,6.68
2023-02-11T10:05:24.013Z,6.65
2023-02-11T10:08:04.719Z,6.71
2023-02-11T10:10:47.486Z,6.85
2023-02-11T10:13:33.603Z,6.99
2023-02-11T10:16:13.124Z,7.02
2023-02-11T10:18:53.084Z,7.11
2023-02-11T10:21:36.576Z,7.16
2023-02-11T10:24:13.680Z,7.25
2023-02-11T10:26:43.018Z,7.32
2023-02-11T10:29:23.080Z,7.40
2023-02-11T10:31:52.567Z,7.46
2023-02-11T10:34:20.725Z,7.56
2023-02-11T10:36:49.130Z,7.55
2023-02-11T10:39:20.866Z,7.51
2023-02-11T10:41:54.405Z,7.48
2023-02-11T10:44:28.717Z,7.46
2023-02-11T10:46:59.515Z,7.47
2023-02-11T10:49:39.725Z,7.44
2023-02-11T10:52:25.632Z,7.43
2023-02-11T10:55:05.014Z,7.45
2023-02-11T10:57:36.728Z,7.40
2023-02-11T11:00:21.283Z,7.40
2023-02-11T11:02:56.777Z,7.39
2023-02-11T11:05:31.338Z,7.52
2023-02-11T11:08:03.658Z,7.49
2023-02-11T11:10:43.644Z,7.61
2023-02-11T11:13:27.428Z,7.78
2023-02-11T11:16:18.977Z,7.95
2023-02-11T11:18:49.021Z,7.93
2023-02-11T11:21:24.394Z,7.86
2023-02-11T11:23:58.303Z,7.89
2023-02-11T11:26:30.454Z,8.03
2023-02-11T11:29:01.996Z,7.96
2023-02-11T11:31:34.665Z,7.92
2023-02-11T11:34:23.377Z,8.02
2023-02-11T11:36:54.785Z,8.12
2023-02-11T11:39:26.412Z,8.17
2023-02-11T11:41:58.978Z,8.20
2023-02-11T11:44:33.680Z,8.28
2023-02-11T11:47:25.224Z,8.33
2023-02-11T11:50:28.328Z,8.36
2023-02-11T11:53:01.757Z,8.43
2023-02-11T11:55:38.838Z,8.27
2023-02-11T11:58:17.527Z,8.27
2023-02-11T12:00:56.652Z,8.33
2023-02-11T12:03:48.749Z,8.40
2023-02-11T12:06:31.940Z,8.46
2023-02-11T12:09:10.923Z,8.48
2023-02-11T12:11:59.113Z,8.48
2023-02-11T12:14:41.727Z,8.60
2023-02-11T12:17:20.409Z,8.70
2023-02-11T12:20:23.745Z,8.71
2023-02-11T12:23:03.698Z,8.72
2023-02-11T12:25:39.980Z,8.76
2023-02-11T12:28:21.688Z,8.72
2023-02-11T12:31:12.091Z,8.68
2023-02-11T12:34:10.004Z,8.69
2023-02-11T12:36:55.230Z,8.77
2023-02-11T12:39:35.872Z,8.82
2023-02-11T12:42:47.784Z,8.82
2023-02-11T12:45:29.647Z,8.77
2023-02-11T12:48:14.254Z,8.78
2023-02-11T12:50:56.768Z,8.79
2023-02-11T12:53:58.290Z,8.81
2023-02-11T12:56:34.522Z,8.82
2023-02-11T12:59:13.908Z,8.57
2023-02-11T13:01:45.939Z,8.54
2023-02-11T13:04:20.887Z,8.47
2023-02-11T13:06:54.927Z,8.50
2023-02-11T13:09:30.095Z,8.46
2023-02-11T13:12:24.036Z,8.51
2023-02-11T13:14:56.484Z,8.34
2023-02-11T13:17:33.363Z,8.24
2023-02-11T13:20:15.396Z,8.27
2023-02-11T13:22:57.242Z,8.22
2023-02-11T13:25:33.892Z,8.20
2023-02-11T13:28:15.661Z,8.23
2023-02-11T13:30:51.407Z,8.12
2023-02-11T13:33:34.033Z,8.16
2023-02-11T13:36:16.464Z,8.20
2023-02-11T13:38:59.020Z,8.21
2023-02-11T13:41:31.235Z,8.24
2023-02-11T13:44:02.906Z,8.25
2023-02-11T13:46:50.993Z,8.30
2023-02-11T13:49:22.629Z,8.30
2023-02-11T13:51:54.481Z,8.22
2023-02-11T13:54:27.626Z,8.18
2023-02-11T13:57:28.390Z,8.15
2023-02-11T14:00:00.189Z,8.13
2023-02-11T14:02:50.010Z,8.14
2023-02-11T14:05:44.827Z,8.14
2023-02-11T14:08:39.841Z,8.13
2023-02-11T14:11:12.693Z,8.16
2023-02-11T14:14:16.431Z,8.16
2023-02-11T14:17:31.155Z,7.95
2023-02-11T14:20:00.325Z,7.96
2023-02-11T14:22:31.956Z,7.97
2023-02-11T14:25:03.194Z,7.97
2023-02-11T14:27:37.561Z,7.97
2023-02-11T14:30:53.876Z,8.02
2023-02-11T14:33:57.283Z,8.07
2023-02-11T14:36:46.695Z,8.08
2023-02-11T14:39:23.736Z,8.11
2023-02-11T14:41:53.683Z,8.13
2023-02-11T14:44:24.354Z,8.25
2023-02-11T14:46:55.249Z,8.17
2023-02-11T14:49:27.661Z,8.21
2023-02-11T14:51:58.898Z,8.29
2023-02-11T14:54:31.292Z,8.28
2023-02-11T14:57:13.770Z,8.29
2023-02-11T14:59:54.817Z,8.26
2023-02-11T15:02:26.205Z,8.25
2023-02-11T15:04:55.226Z,8.23
2023-02-11T15:07:23.572Z,8.21
2023-02-11T15:09:54.281Z,8.22
2023-02-11T15:12:26.419Z,8.18
2023-02-11T15:14:56.450Z,8.16
2023-02-11T15:17:29.434Z,8.16
2023-02-11T15:20:01.204Z,8.18
2023-02-11T15:22:33.230Z,8.14
2023-02-11T15:25:04.106Z,8.10
2023-02-11T15:27:44.837Z,8.09
2023-02-11T15:30:26.012Z,8.02
2023-02-11T15:32:58.697Z,7.96
2023-02-11T15:35:28.992Z,7.87
2023-02-11T15:37:58.826Z,7.80
2023-02-11T15:40:29.782Z,7.82
2023-02-11T15:43:02.793Z,7.70
2023-02-11T15:45:33.592Z,7.72
2023-02-11T15:48:09.871Z,7.76
2023-02-11T15:50:40.930Z,7.78
2023-02-11T15:53:26.014Z,7.80
2023-02-11T15:56:01.577Z,7.85
2023-02-11T15:58:39.202Z,7.72
2023-02-11T16:01:08.711Z,7.75
2023-02-11T16:03:39.807Z,7.76
2023-02-11T16:06:19.895Z,7.84
2023-02-11T16:08:59.164Z,7.76
2023-02-11T16:11:30.597Z,7.79
2023-02-11T16:14:01.885Z,7.76
2023-02-11T16:16:32.957Z,7.87
2023-02-11T16:19:06.219Z,7.80
2023-02-11T16:21:42.528Z,7.75
2023-02-11T16:24:21.300Z,7.86
2023-02-11T16:26:51.252Z,7.83
2023-02-11T16:29:25.882Z,7.78
2023-02-11T16:31:55.991Z,7.73
2023-02-11T16:34:25.729Z,7.73
2023-02-11T16:36:54.103Z,7.72
2023-02-11T16:39:23.709Z,7.67
2023-02-11T16:41:52.673Z,7.67
2023-02-11T16:44:22.277Z,7.68
2023-02-11T16:46:51.268Z,7.71
2023-02-11T16:49:26.859Z,7.67
2023-02-11T16:52:01.307Z,7.66
2023-02-11T16:54:30.526Z,7.62
2023-02-11T16:56:58.687Z,7.60
2023-02-11T16:59:28.145Z,7.57
2023-02-11T17:01:56.561Z,7.56
2023-02-11T17:04:29.432Z,7.55
2023-02-11T17:06:58.588Z,7.54
2023-02-11T17:09:31.150Z,7.56
2023-02-11T17:12:00.399Z,7.55
2023-02-11T17:14:30.483Z,7.55
2023-02-11T17:17:17.883Z,7.57
2023-02-11T17:19:48.774Z,7.61
2023-02-11T17:22:16.959Z,7.60
2023-02-11T17:24:44.851Z,7.55
2023-02-11T17:27:15.284Z,7.54
2023-02-11T17:29:44.930Z,7.51
2023-02-11T17:32:13.341Z,7.49
2023-02-11T17:34:41.287Z,7.48
2023-02-11T17:37:10.079Z,7.50
2023-02-11T17:39:39.078Z,7.48
2023-02-11T17:42:08.653Z,7.49
2023-02-11T17:44:37.191Z,7.49
2023-02-11T17:47:09.856Z,7.51
2023-02-11T17:49:38.180Z,7.51
2023-02-11T17:52:06.353Z,7.46
2023-02-11T17:54:34.543Z,7.45
2023-02-11T17:57:07.643Z,7.47
2023-02-11T17:59:36.281Z,7.45
2023-02-11T18:02:04.993Z,7.45
2023-02-11T18:04:34.611Z,7.46
2023-02-11T18:07:03.065Z,7.45
2023-02-11T18:09:31.444Z,7.42
2023-02-11T18:11:59.545Z,7.40
2023-02-11T18:14:27.631Z,7.40
2023-02-11T18:16:55.879Z,7.40
2023-02-11T18:19:23.827Z,7.41
2023-02-11T18:21:53.206Z,7.42
2023-02-11T18:24:21.856Z,7.44
2023-02-11T18:26:50.119Z,7.43
2023-02-11T18:29:18.213Z,7.43
2023-02-11T18:31:46.440Z,7.39
2023-02-11T18:34:15.957Z,7.35
2023-02-11T18:36:44.023Z,7.36
2023-02-11T18:39:13.174Z,7.33
2023-02-11T18:41:43.778Z,7.32
2023-02-11T18:44:14.036Z,7.32
2023-02-11T18:46:42.286Z,7.32
2023-02-11T18:49:13.108Z,7.30
2023-02-11T18:51:41.337Z,7.31
2023-02-11T18:54:10.013Z,7.33
2023-02-11T18:56:39.260Z,7.32
2023-02-11T18:59:07.387Z,7.33
2023-02-11T19:01:40.270Z,7.36
2023-02-11T19:04:11.366Z,7.35
2023-02-11T19:06:40.202Z,7.34
2023-02-11T19:09:11.158Z,7.33
2023-02-11T19:11:50.908Z,7.33
2023-02-11T19:14:22.447Z,7.31
2023-02-11T19:16:52.837Z,7.30
2023-02-11T19:19:23.153Z,7.31
2023-02-11T19:21:51.235Z,7.30
2023-02-11T19:24:21.908Z,7.31
2023-02-11T19:26:57.118Z,7.32
2023-02-11T19:29:25.167Z,7.32
2023-02-11T19:31:53.410Z,7.31
2023-02-11T19:34:24.111Z,7.31
2023-02-11T19:36:54.801Z,7.32
2023-02-11T19:39:24.750Z,7.30
2023-02-11T19:41:54.427Z,7.30
2023-02-11T19:44:22.454Z,7.29
2023-02-11T19:46:52.881Z,7.28
2023-02-11T19:49:23.441Z,7.28
2023-02-11T19:51:52.432Z,7.28
2023-02-11T19:54:20.952Z,7.27
2023-02-11T19:56:49.813Z,7.29
2023-02-11T19:59:20.693Z,7.27
2023-02-11T20:01:53.110Z,7.26
2023-02-11T20:04:21.414Z,7.28
2023-02-11T20:06:50.160Z,7.29
2023-02-11T20:09:18.407Z,7.28
2023-02-11T20:11:46.656Z,7.26
2023-02-11T20:14:17.676Z,7.27
2023-02-11T20:16:49.641Z,7.26
2023-02-11T20:19:20.014Z,7.25
2023-02-11T20:21:49.823Z,7.26
2023-02-11T20:24:19.327Z,7.24
2023-02-11T20:26:48.636Z,7.25
2023-02-11T20:29:17.826Z,7.24
2023-02-11T20:31:49.990Z,7.24
2023-02-11T20:34:18.880Z,7.19
2023-02-11T20:36:51.824Z,7.17
2023-02-11T20:39:22.273Z,7.17
2023-02-11T20:41:51.108Z,7.19
2023-02-11T20:44:19.339Z,7.16
2023-02-11T20:46:48.025Z,7.15
2023-02-11T20:49:19.440Z,7.16
2023-02-11T20:51:50.042Z,7.16
2023-02-11T20:54:21.291Z,7.14
2023-02-11T20:56:51.061Z,7.13
2023-02-11T20:59:20.871Z,7.10
2023-02-11T21:01:53.502Z,7.05
2023-02-11T21:04:25.284Z,7.03
2023-02-11T21:06:56.195Z,7.06
2023-02-11T21:09:28.894Z,7.08
2023-02-11T21:12:00.018Z,7.08
2023-02-11T21:14:33.947Z,7.09
2023-02-11T21:17:02.363Z,7.07
2023-02-11T21:19:31.570Z,7.02
2023-02-11T21:22:00.918Z,7.01
2023-02-11T21:24:30.668Z,7.02
2023-02-11T21:26:58.522Z,7.03
2023-02-11T21:29:26.511Z,7.02
2023-02-11T21:31:54.585Z,7.03
2023-02-11T21:34:22.775Z,7.03
2023-02-11T21:36:52.328Z,7.04
2023-02-11T21:39:22.606Z,7.04
2023-02-11T21:41:51.704Z,7.04
2023-02-11T21:44:19.994Z,7.08
2023-02-11T21:46:48.170Z,7.12
2023-02-11T21:49:16.127Z,7.10
2023-02-11T21:51:44.134Z,7.08
2023-02-11T21:54:13.645Z,7.06
2023-02-11T21:56:41.713Z,7.07
2023-02-11T21:59:13.600Z,7.05
2023-02-11T22:01:42.453Z,7.02
2023-02-11T22:04:11.058Z,7.02
2023-02-11T22:06:40.017Z,7.00
2023-02-11T22:09:09.381Z,6.97
2023-02-11T22:11:38.954Z,6.96
2023-02-11T22:14:07.435Z,6.94
2023-02-11T22:16:35.438Z,6.91
2023-02-11T22:19:03.747Z,6.93
2023-02-11T22:21:32.007Z,6.95
2023-02-11T22:23:59.913Z,6.88
2023-02-11T22:26:29.607Z,6.85
2023-02-11T22:28:59.158Z,6.85
2023-02-11T22:31:29.935Z,6.87
2023-02-11T22:34:01.224Z,6.86
2023-02-11T22:36:30.938Z,6.85
2023-02-11T22:39:02.029Z,6.84
2023-02-11T22:41:30.934Z,6.84
2023-02-11T22:44:00.621Z,6.85
2023-02-11T22:46:28.689Z,6.85
2023-02-11T22:48:56.756Z,6.87
2023-02-11T22:51:29.175Z,6.86
2023-02-11T22:54:01.329Z,6.84
2023-02-11T22:56:31.437Z,6.85
2023-02-11T22:59:02.546Z,6.85
2023-02-11T23:01:31.709Z,6.86
2023-02-11T23:04:01.982Z,6.88
2023-02-11T23:06:30.313Z,6.84
2023-02-11T23:08:58.952Z,6.84
2023-02-11T23:11:29.191Z,6.83
2023-02-11T23:14:02.910Z,6.83
2023-02-11T23:16:34.771Z,6.84
2023-02-11T23:19:22.010Z,6.84
2023-02-11T23:22:08.379Z,6.80
2023-02-11T23:24:37.330Z,6.81
2023-02-11T23:27:05.582Z,6.80
2023-02-11T23:29:35.095Z,6.80
2023-02-11T23:32:03.436Z,6.80
2023-02-11T23:34:31.292Z,6.81
2023-02-11T23:36:59.663Z,6.79
2023-02-11T23:39:48.750Z,6.77
2023-02-11T23:42:17.083Z,6.76
2023-02-11T23:44:46.304Z,6.76
2023-02-11T23:47:14.499Z,6.76
2023-02-11T23:49:42.648Z,6.75
2023-02-11T23:52:10.958Z,6.75
2023-02-11T23:54:39.102Z,6.74
2023-02-11T23:57:07.200Z,6.76
2023-02-11T23:59:37.588Z,6.75
